< < Back
Terminal Aerodrome Forecast


Current Version              Previous Versions:   1  2  3  4  5  6  7  8  9  

Terminal Aerodrome Forecast

624
FTAK31 PAJN 251744
TAFAHN
TAF
PAHN 251744Z 2518/2618 12010KT P6SM OVC060
     FM252100 13012KT P6SM BKN060
     FM260500 VRB06KT P6SM BKN080
      AMD LTD TO CLD VIS AND WIND=

Latest METAR

656
SAUS70 KWBC 251900 RRA
MTRAHN
METAR KAHN 251851Z VRB03KT 10SM FEW075 30/12 A3022 RMK AO2 SLP227
T03000122


USA.gov is the U.S. government's official web portal to all federal, state and local government web resources and services.